sensor_id;sensor_type;location;lat;lon;timestamp;P1;durP1;ratioP1;P2;durP2;ratioP2
78116;SDS011;69042;59.120;37.904;2023-05-10T00:01:27;6.95;;;4.22;;
78116;SDS011;69042;59.120;37.904;2023-05-10T00:03:53;8.40;;;4.10;;
78116;SDS011;69042;59.120;37.904;2023-05-10T00:06:20;12.63;;;4.10;;
78116;SDS011;69042;59.120;37.904;2023-05-10T00:08:46;9.40;;;4.03;;
78116;SDS011;69042;59.120;37.904;2023-05-10T00:11:12;9.07;;;4.38;;
78116;SDS011;69042;59.120;37.904;2023-05-10T00:13:38;11.43;;;3.63;;
78116;SDS011;69042;59.120;37.904;2023-05-10T00:16:04;10.15;;;3.75;;
78116;SDS011;69042;59.120;37.904;2023-05-10T00:18:31;8.18;;;4.15;;
78116;SDS011;69042;59.120;37.904;2023-05-10T00:20:58;8.38;;;4.07;;
78116;SDS011;69042;59.120;37.904;2023-05-10T00:23:26;7.00;;;3.78;;
78116;SDS011;69042;59.120;37.904;2023-05-10T00:25:53;7.72;;;3.90;;
78116;SDS011;69042;59.120;37.904;2023-05-10T00:28:19;8.50;;;4.07;;
78116;SDS011;69042;59.120;37.904;2023-05-10T00:30:45;7.10;;;4.20;;
78116;SDS011;69042;59.120;37.904;2023-05-10T00:33:12;7.22;;;3.83;;
78116;SDS011;69042;59.120;37.904;2023-05-10T00:35:38;8.25;;;4.05;;
78116;SDS011;69042;59.120;37.904;2023-05-10T00:38:04;9.23;;;4.10;;
78116;SDS011;69042;59.120;37.904;2023-05-10T00:40:30;7.05;;;4.03;;
78116;SDS011;69042;59.120;37.904;2023-05-10T00:43:02;7.75;;;3.85;;
78116;SDS011;69042;59.120;37.904;2023-05-10T00:45:30;8.52;;;4.00;;
78116;SDS011;69042;59.120;37.904;2023-05-10T00:47:58;8.80;;;4.25;;
78116;SDS011;69042;59.120;37.904;2023-05-10T00:50:26;8.10;;;4.05;;
78116;SDS011;69042;59.120;37.904;2023-05-10T00:52:53;6.78;;;3.85;;
78116;SDS011;69042;59.120;37.904;2023-05-10T00:55:20;7.18;;;3.55;;
78116;SDS011;69042;59.120;37.904;2023-05-10T00:57:47;6.85;;;3.30;;
78116;SDS011;69042;59.120;37.904;2023-05-10T01:00:14;7.40;;;3.85;;
78116;SDS011;69042;59.120;37.904;2023-05-10T01:02:44;6.53;;;4.00;;
78116;SDS011;69042;59.120;37.904;2023-05-10T01:05:12;8.73;;;3.90;;
78116;SDS011;69042;59.120;37.904;2023-05-10T01:07:39;9.63;;;4.10;;
78116;SDS011;69042;59.120;37.904;2023-05-10T01:10:07;7.30;;;4.53;;
78116;SDS011;69042;59.120;37.904;2023-05-10T01:12:39;8.02;;;3.72;;
78116;SDS011;69042;59.120;37.904;2023-05-10T01:15:11;7.95;;;4.18;;
78116;SDS011;69042;59.120;37.904;2023-05-10T01:17:42;8.80;;;4.35;;
78116;SDS011;69042;59.120;37.904;2023-05-10T01:20:10;8.48;;;4.10;;
78116;SDS011;69042;59.120;37.904;2023-05-10T01:25:27;9.82;;;5.10;;
78116;SDS011;69042;59.120;37.904;2023-05-10T01:28:13;12.00;;;4.90;;
78116;SDS011;69042;59.120;37.904;2023-05-10T01:36:32;8.05;;;4.75;;
78116;SDS011;69042;59.120;37.904;2023-05-10T01:42:21;10.73;;;4.97;;
78116;SDS011;69042;59.120;37.904;2023-05-10T01:47:43;8.57;;;4.25;;
78116;SDS011;69042;59.120;37.904;2023-05-10T01:50:15;8.43;;;3.72;;
78116;SDS011;69042;59.120;37.904;2023-05-10T01:52:44;8.57;;;3.75;;
78116;SDS011;69042;59.120;37.904;2023-05-10T01:55:20;9.35;;;3.95;;
78116;SDS011;69042;59.120;37.904;2023-05-10T01:57:51;7.85;;;3.92;;
78116;SDS011;69042;59.120;37.904;2023-05-10T02:00:23;11.00;;;4.60;;
78116;SDS011;69042;59.120;37.904;2023-05-10T02:02:52;10.38;;;4.60;;
78116;SDS011;69042;59.120;37.904;2023-05-10T02:05:19;12.13;;;4.95;;
78116;SDS011;69042;59.120;37.904;2023-05-10T02:07:47;11.77;;;6.22;;
78116;SDS011;69042;59.120;37.904;2023-05-10T02:10:15;12.38;;;5.65;;
78116;SDS011;69042;59.120;37.904;2023-05-10T02:12:42;11.38;;;5.13;;
78116;SDS011;69042;59.120;37.904;2023-05-10T02:15:14;11.23;;;5.65;;
78116;SDS011;69042;59.120;37.904;2023-05-10T02:17:46;14.32;;;6.00;;
78116;SDS011;69042;59.120;37.904;2023-05-10T02:20:13;11.43;;;5.72;;
78116;SDS011;69042;59.120;37.904;2023-05-10T02:22:42;10.27;;;5.50;;
78116;SDS011;69042;59.120;37.904;2023-05-10T02:25:10;10.27;;;5.28;;
78116;SDS011;69042;59.120;37.904;2023-05-10T02:30:07;11.75;;;5.40;;
78116;SDS011;69042;59.120;37.904;2023-05-10T02:32:34;11.80;;;5.30;;
78116;SDS011;69042;59.120;37.904;2023-05-10T02:35:02;11.68;;;4.80;;
78116;SDS011;69042;59.120;37.904;2023-05-10T02:37:29;12.80;;;5.30;;
78116;SDS011;69042;59.120;37.904;2023-05-10T02:39:56;13.85;;;4.78;;
78116;SDS011;69042;59.120;37.904;2023-05-10T02:44:56;12.05;;;4.70;;
78116;SDS011;69042;59.120;37.904;2023-05-10T02:47:26;8.35;;;4.50;;
78116;SDS011;69042;59.120;37.904;2023-05-10T02:49:54;10.82;;;4.72;;
78116;SDS011;69042;59.120;37.904;2023-05-10T02:52:23;9.85;;;4.32;;
78116;SDS011;69042;59.120;37.904;2023-05-10T02:54:54;12.32;;;5.13;;
78116;SDS011;69042;59.120;37.904;2023-05-10T02:57:27;12.02;;;5.10;;
78116;SDS011;69042;59.120;37.904;2023-05-10T02:59:58;10.85;;;4.55;;
78116;SDS011;69042;59.120;37.904;2023-05-10T03:02:25;15.43;;;4.55;;
78116;SDS011;69042;59.120;37.904;2023-05-10T03:04:52;10.73;;;4.10;;
78116;SDS011;69042;59.120;37.904;2023-05-10T03:07:20;13.95;;;4.60;;
78116;SDS011;69042;59.120;37.904;2023-05-10T03:14:57;11.38;;;4.72;;
78116;SDS011;69042;59.120;37.904;2023-05-10T03:17:36;12.63;;;4.85;;
78116;SDS011;69042;59.120;37.904;2023-05-10T03:20:09;17.98;;;5.57;;
78116;SDS011;69042;59.120;37.904;2023-05-10T03:22:47;18.92;;;7.00;;
78116;SDS011;69042;59.120;37.904;2023-05-10T03:25:16;14.32;;;6.07;;
78116;SDS011;69042;59.120;37.904;2023-05-10T03:27:43;12.02;;;5.55;;
78116;SDS011;69042;59.120;37.904;2023-05-10T03:30:11;13.70;;;5.13;;
78116;SDS011;69042;59.120;37.904;2023-05-10T03:32:38;15.48;;;5.47;;
78116;SDS011;69042;59.120;37.904;2023-05-10T03:35:11;15.43;;;5.30;;
78116;SDS011;69042;59.120;37.904;2023-05-10T03:37:39;18.35;;;6.65;;
78116;SDS011;69042;59.120;37.904;2023-05-10T03:40:05;17.77;;;5.43;;
78116;SDS011;69042;59.120;37.904;2023-05-10T03:42:33;17.20;;;5.82;;
78116;SDS011;69042;59.120;37.904;2023-05-10T03:45:00;16.80;;;5.32;;
78116;SDS011;69042;59.120;37.904;2023-05-10T03:47:26;13.55;;;5.43;;
78116;SDS011;69042;59.120;37.904;2023-05-10T03:49:52;13.50;;;5.10;;
78116;SDS011;69042;59.120;37.904;2023-05-10T03:52:18;15.27;;;5.28;;
78116;SDS011;69042;59.120;37.904;2023-05-10T03:54:44;10.95;;;5.05;;
78116;SDS011;69042;59.120;37.904;2023-05-10T03:57:10;12.23;;;5.18;;
78116;SDS011;69042;59.120;37.904;2023-05-10T03:59:36;13.77;;;5.93;;
78116;SDS011;69042;59.120;37.904;2023-05-10T04:02:02;14.40;;;5.75;;
78116;SDS011;69042;59.120;37.904;2023-05-10T04:04:29;13.82;;;5.38;;
78116;SDS011;69042;59.120;37.904;2023-05-10T04:06:55;19.25;;;5.75;;
78116;SDS011;69042;59.120;37.904;2023-05-10T04:09:21;16.17;;;5.50;;
78116;SDS011;69042;59.120;37.904;2023-05-10T04:11:47;16.27;;;6.25;;
78116;SDS011;69042;59.120;37.904;2023-05-10T04:14:13;15.18;;;5.70;;
78116;SDS011;69042;59.120;37.904;2023-05-10T04:16:39;19.90;;;6.18;;
78116;SDS011;69042;59.120;37.904;2023-05-10T04:19:05;22.73;;;7.38;;
78116;SDS011;69042;59.120;37.904;2023-05-10T04:21:32;19.73;;;7.88;;
78116;SDS011;69042;59.120;37.904;2023-05-10T04:23:58;24.85;;;8.18;;
78116;SDS011;69042;59.120;37.904;2023-05-10T04:26:24;31.65;;;8.77;;
78116;SDS011;69042;59.120;37.904;2023-05-10T04:28:51;22.13;;;8.23;;
78116;SDS011;69042;59.120;37.904;2023-05-10T04:31:17;30.63;;;8.18;;
78116;SDS011;69042;59.120;37.904;2023-05-10T04:33:43;27.40;;;8.27;;
78116;SDS011;69042;59.120;37.904;2023-05-10T04:36:09;27.90;;;7.45;;
78116;SDS011;69042;59.120;37.904;2023-05-10T04:38:35;24.23;;;8.27;;
78116;SDS011;69042;59.120;37.904;2023-05-10T04:41:05;21.58;;;8.30;;
78116;SDS011;69042;59.120;37.904;2023-05-10T04:43:35;25.42;;;7.80;;
78116;SDS011;69042;59.120;37.904;2023-05-10T04:46:02;21.98;;;7.35;;
78116;SDS011;69042;59.120;37.904;2023-05-10T04:48:28;25.67;;;8.55;;
78116;SDS011;69042;59.120;37.904;2023-05-10T04:50:54;24.38;;;8.45;;
78116;SDS011;69042;59.120;37.904;2023-05-10T04:53:21;18.52;;;6.93;;
78116;SDS011;69042;59.120;37.904;2023-05-10T04:55:47;37.45;;;9.18;;
78116;SDS011;69042;59.120;37.904;2023-05-10T04:58:13;31.45;;;9.35;;
78116;SDS011;69042;59.120;37.904;2023-05-10T05:00:39;22.48;;;8.60;;
78116;SDS011;69042;59.120;37.904;2023-05-10T05:03:06;27.90;;;7.50;;
78116;SDS011;69042;59.120;37.904;2023-05-10T05:05:32;24.23;;;8.10;;
78116;SDS011;69042;59.120;37.904;2023-05-10T05:07:58;26.05;;;7.72;;
78116;SDS011;69042;59.120;37.904;2023-05-10T05:10:24;35.10;;;10.02;;
78116;SDS011;69042;59.120;37.904;2023-05-10T05:12:50;20.67;;;7.45;;
78116;SDS011;69042;59.120;37.904;2023-05-10T05:15:16;25.40;;;7.80;;
78116;SDS011;69042;59.120;37.904;2023-05-10T05:17:42;25.63;;;7.00;;
78116;SDS011;69042;59.120;37.904;2023-05-10T05:20:09;24.85;;;7.45;;
78116;SDS011;69042;59.120;37.904;2023-05-10T05:22:36;21.30;;;7.25;;
78116;SDS011;69042;59.120;37.904;2023-05-10T05:25:02;23.00;;;6.97;;
78116;SDS011;69042;59.120;37.904;2023-05-10T05:27:29;25.55;;;6.47;;
78116;SDS011;69042;59.120;37.904;2023-05-10T05:29:55;23.02;;;7.35;;
78116;SDS011;69042;59.120;37.904;2023-05-10T05:32:22;23.17;;;7.30;;
78116;SDS011;69042;59.120;37.904;2023-05-10T05:34:49;19.23;;;6.47;;
78116;SDS011;69042;59.120;37.904;2023-05-10T05:37:16;21.70;;;6.10;;
78116;SDS011;69042;59.120;37.904;2023-05-10T05:39:43;16.08;;;6.05;;
78116;SDS011;69042;59.120;37.904;2023-05-10T05:42:10;19.58;;;6.07;;
78116;SDS011;69042;59.120;37.904;2023-05-10T05:44:37;22.65;;;5.78;;
78116;SDS011;69042;59.120;37.904;2023-05-10T05:47:03;19.48;;;7.15;;
78116;SDS011;69042;59.120;37.904;2023-05-10T05:49:30;24.95;;;6.47;;
78116;SDS011;69042;59.120;37.904;2023-05-10T05:51:59;24.45;;;8.02;;
78116;SDS011;69042;59.120;37.904;2023-05-10T05:54:26;21.83;;;7.55;;
78116;SDS011;69042;59.120;37.904;2023-05-10T05:56:53;21.45;;;7.88;;
78116;SDS011;69042;59.120;37.904;2023-05-10T05:59:23;24.85;;;8.85;;
78116;SDS011;69042;59.120;37.904;2023-05-10T06:01:50;19.70;;;8.05;;
78116;SDS011;69042;59.120;37.904;2023-05-10T06:04:16;38.70;;;10.98;;
78116;SDS011;69042;59.120;37.904;2023-05-10T06:06:43;26.38;;;9.35;;
78116;SDS011;69042;59.120;37.904;2023-05-10T06:09:09;23.00;;;7.70;;
78116;SDS011;69042;59.120;37.904;2023-05-10T06:11:36;18.95;;;6.97;;
78116;SDS011;69042;59.120;37.904;2023-05-10T06:14:02;15.60;;;5.68;;
78116;SDS011;69042;59.120;37.904;2023-05-10T06:16:33;19.17;;;5.60;;
78116;SDS011;69042;59.120;37.904;2023-05-10T06:19:00;22.85;;;7.15;;
78116;SDS011;69042;59.120;37.904;2023-05-10T06:21:27;22.13;;;7.50;;
78116;SDS011;69042;59.120;37.904;2023-05-10T06:23:53;27.20;;;9.00;;
78116;SDS011;69042;59.120;37.904;2023-05-10T06:26:19;19.38;;;7.85;;
78116;SDS011;69042;59.120;37.904;2023-05-10T06:28:46;13.80;;;5.72;;
78116;SDS011;69042;59.120;37.904;2023-05-10T06:31:12;14.90;;;5.32;;
78116;SDS011;69042;59.120;37.904;2023-05-10T06:33:38;14.10;;;5.95;;
78116;SDS011;69042;59.120;37.904;2023-05-10T06:36:04;13.23;;;4.90;;
78116;SDS011;69042;59.120;37.904;2023-05-10T06:38:34;17.63;;;5.93;;
78116;SDS011;69042;59.120;37.904;2023-05-10T06:41:00;13.80;;;5.10;;
78116;SDS011;69042;59.120;37.904;2023-05-10T06:43:26;15.27;;;5.18;;
78116;SDS011;69042;59.120;37.904;2023-05-10T06:45:54;15.68;;;5.70;;
78116;SDS011;69042;59.120;37.904;2023-05-10T06:48:20;16.17;;;6.57;;
78116;SDS011;69042;59.120;37.904;2023-05-10T06:50:46;23.25;;;10.98;;
78116;SDS011;69042;59.120;37.904;2023-05-10T06:53:12;33.30;;;12.85;;
78116;SDS011;69042;59.120;37.904;2023-05-10T06:55:39;26.13;;;11.73;;
78116;SDS011;69042;59.120;37.904;2023-05-10T06:58:05;31.13;;;12.85;;
78116;SDS011;69042;59.120;37.904;2023-05-10T07:00:31;21.33;;;8.57;;
78116;SDS011;69042;59.120;37.904;2023-05-10T07:02:57;13.70;;;5.13;;
78116;SDS011;69042;59.120;37.904;2023-05-10T07:05:24;11.10;;;3.42;;
78116;SDS011;69042;59.120;37.904;2023-05-10T07:07:50;5.68;;;2.55;;
78116;SDS011;69042;59.120;37.904;2023-05-10T07:10:17;9.40;;;3.63;;
78116;SDS011;69042;59.120;37.904;2023-05-10T07:12:43;5.97;;;2.00;;
78116;SDS011;69042;59.120;37.904;2023-05-10T07:15:09;7.50;;;2.55;;
78116;SDS011;69042;59.120;37.904;2023-05-10T07:17:35;5.43;;;2.42;;
78116;SDS011;69042;59.120;37.904;2023-05-10T07:20:02;5.38;;;1.95;;
78116;SDS011;69042;59.120;37.904;2023-05-10T07:22:29;4.47;;;1.67;;
78116;SDS011;69042;59.120;37.904;2023-05-10T07:24:55;4.82;;;1.95;;
78116;SDS011;69042;59.120;37.904;2023-05-10T07:27:21;7.43;;;1.90;;
78116;SDS011;69042;59.120;37.904;2023-05-10T07:29:47;10.70;;;5.00;;
78116;SDS011;69042;59.120;37.904;2023-05-10T07:32:14;4.47;;;1.85;;
78116;SDS011;69042;59.120;37.904;2023-05-10T07:34:40;4.60;;;1.83;;
78116;SDS011;69042;59.120;37.904;2023-05-10T07:37:06;4.40;;;1.55;;
78116;SDS011;69042;59.120;37.904;2023-05-10T07:39:32;6.25;;;2.10;;
78116;SDS011;69042;59.120;37.904;2023-05-10T07:41:58;4.32;;;1.73;;
78116;SDS011;69042;59.120;37.904;2023-05-10T07:44:24;6.10;;;1.73;;
78116;SDS011;69042;59.120;37.904;2023-05-10T07:46:52;5.93;;;2.50;;
78116;SDS011;69042;59.120;37.904;2023-05-10T07:49:18;6.45;;;2.10;;
78116;SDS011;69042;59.120;37.904;2023-05-10T07:51:44;4.28;;;1.40;;
78116;SDS011;69042;59.120;37.904;2023-05-10T07:54:10;6.28;;;2.40;;
78116;SDS011;69042;59.120;37.904;2023-05-10T07:56:37;5.72;;;2.30;;
78116;SDS011;69042;59.120;37.904;2023-05-10T07:59:05;6.22;;;2.85;;
78116;SDS011;69042;59.120;37.904;2023-05-10T08:01:32;7.18;;;2.83;;
78116;SDS011;69042;59.120;37.904;2023-05-10T08:03:59;7.22;;;2.90;;
78116;SDS011;69042;59.120;37.904;2023-05-10T08:06:26;8.48;;;4.55;;
78116;SDS011;69042;59.120;37.904;2023-05-10T08:08:53;5.82;;;1.63;;
78116;SDS011;69042;59.120;37.904;2023-05-10T08:11:20;4.60;;;1.80;;
78116;SDS011;69042;59.120;37.904;2023-05-10T08:13:47;7.32;;;1.77;;
78116;SDS011;69042;59.120;37.904;2023-05-10T08:16:14;5.90;;;1.63;;
78116;SDS011;69042;59.120;37.904;2023-05-10T08:18:41;8.35;;;1.80;;
78116;SDS011;69042;59.120;37.904;2023-05-10T08:21:07;4.82;;;1.70;;
78116;SDS011;69042;59.120;37.904;2023-05-10T08:23:33;6.93;;;3.38;;
78116;SDS011;69042;59.120;37.904;2023-05-10T08:25:59;5.63;;;1.73;;
78116;SDS011;69042;59.120;37.904;2023-05-10T08:28:26;5.40;;;1.83;;
78116;SDS011;69042;59.120;37.904;2023-05-10T08:30:52;4.75;;;1.58;;
78116;SDS011;69042;59.120;37.904;2023-05-10T08:33:19;6.07;;;1.90;;
78116;SDS011;69042;59.120;37.904;2023-05-10T08:35:45;5.60;;;1.92;;
78116;SDS011;69042;59.120;37.904;2023-05-10T08:38:11;7.55;;;2.20;;
78116;SDS011;69042;59.120;37.904;2023-05-10T08:40:40;6.95;;;2.10;;
78116;SDS011;69042;59.120;37.904;2023-05-10T08:43:08;4.45;;;1.90;;
78116;SDS011;69042;59.120;37.904;2023-05-10T08:45:37;7.32;;;2.35;;
78116;SDS011;69042;59.120;37.904;2023-05-10T08:48:05;6.13;;;2.40;;
78116;SDS011;69042;59.120;37.904;2023-05-10T08:50:33;4.85;;;1.92;;
78116;SDS011;69042;59.120;37.904;2023-05-10T08:53:03;6.07;;;1.92;;
78116;SDS011;69042;59.120;37.904;2023-05-10T08:55:34;5.65;;;2.10;;
78116;SDS011;69042;59.120;37.904;2023-05-10T08:58:06;4.57;;;2.00;;
78116;SDS011;69042;59.120;37.904;2023-05-10T09:00:32;5.80;;;2.17;;
78116;SDS011;69042;59.120;37.904;2023-05-10T09:02:59;6.82;;;2.17;;
78116;SDS011;69042;59.120;37.904;2023-05-10T09:05:26;4.60;;;2.13;;
78116;SDS011;69042;59.120;37.904;2023-05-10T09:07:53;6.05;;;2.50;;
78116;SDS011;69042;59.120;37.904;2023-05-10T09:10:20;7.90;;;2.53;;
78116;SDS011;69042;59.120;37.904;2023-05-10T09:12:48;6.10;;;2.28;;
78116;SDS011;69042;59.120;37.904;2023-05-10T09:15:17;6.93;;;2.40;;
78116;SDS011;69042;59.120;37.904;2023-05-10T09:17:46;4.55;;;1.80;;
78116;SDS011;69042;59.120;37.904;2023-05-10T09:20:12;5.88;;;2.22;;
78116;SDS011;69042;59.120;37.904;2023-05-10T09:22:39;5.35;;;1.80;;
78116;SDS011;69042;59.120;37.904;2023-05-10T09:27:32;8.10;;;2.72;;
78116;SDS011;69042;59.120;37.904;2023-05-10T09:29:59;5.13;;;1.83;;
78116;SDS011;69042;59.120;37.904;2023-05-10T09:35:07;5.25;;;2.10;;
78116;SDS011;69042;59.120;37.904;2023-05-10T09:37:33;6.00;;;1.63;;
78116;SDS011;69042;59.120;37.904;2023-05-10T09:39:59;4.75;;;1.85;;
78116;SDS011;69042;59.120;37.904;2023-05-10T09:42:26;5.47;;;1.92;;
78116;SDS011;69042;59.120;37.904;2023-05-10T09:44:52;8.32;;;4.38;;
78116;SDS011;69042;59.120;37.904;2023-05-10T09:47:18;17.90;;;3.80;;
78116;SDS011;69042;59.120;37.904;2023-05-10T09:49:50;6.53;;;2.13;;
78116;SDS011;69042;59.120;37.904;2023-05-10T09:52:23;6.30;;;1.95;;
78116;SDS011;69042;59.120;37.904;2023-05-10T09:54:52;6.70;;;2.30;;
78116;SDS011;69042;59.120;37.904;2023-05-10T09:57:22;5.18;;;2.03;;
78116;SDS011;69042;59.120;37.904;2023-05-10T09:59:50;5.07;;;2.25;;
78116;SDS011;69042;59.120;37.904;2023-05-10T10:02:16;5.40;;;1.80;;
78116;SDS011;69042;59.120;37.904;2023-05-10T10:04:42;4.70;;;2.20;;
78116;SDS011;69042;59.120;37.904;2023-05-10T10:07:08;6.55;;;2.30;;
78116;SDS011;69042;59.120;37.904;2023-05-10T10:09:35;6.35;;;2.20;;
78116;SDS011;69042;59.120;37.904;2023-05-10T10:12:01;4.30;;;1.83;;
78116;SDS011;69042;59.120;37.904;2023-05-10T10:14:28;6.00;;;2.03;;
78116;SDS011;69042;59.120;37.904;2023-05-10T10:16:54;4.85;;;2.00;;
78116;SDS011;69042;59.120;37.904;2023-05-10T10:19:21;4.15;;;1.80;;
78116;SDS011;69042;59.120;37.904;2023-05-10T10:21:48;4.78;;;1.90;;
78116;SDS011;69042;59.120;37.904;2023-05-10T10:24:15;6.05;;;1.95;;
78116;SDS011;69042;59.120;37.904;2023-05-10T10:26:42;4.28;;;1.90;;
78116;SDS011;69042;59.120;37.904;2023-05-10T10:29:16;5.72;;;2.35;;
78116;SDS011;69042;59.120;37.904;2023-05-10T10:32:12;8.82;;;2.38;;
78116;SDS011;69042;59.120;37.904;2023-05-10T10:34:47;5.63;;;1.90;;
78116;SDS011;69042;59.120;37.904;2023-05-10T10:37:14;4.65;;;1.80;;
78116;SDS011;69042;59.120;37.904;2023-05-10T10:39:40;5.55;;;2.22;;
78116;SDS011;69042;59.120;37.904;2023-05-10T10:42:06;5.88;;;2.72;;
78116;SDS011;69042;59.120;37.904;2023-05-10T10:52:26;6.00;;;1.85;;
78116;SDS011;69042;59.120;37.904;2023-05-10T10:57:27;7.18;;;2.15;;
78116;SDS011;69042;59.120;37.904;2023-05-10T11:02:53;5.53;;;1.95;;
78116;SDS011;69042;59.120;37.904;2023-05-10T11:07:55;6.70;;;2.00;;
78116;SDS011;69042;59.120;37.904;2023-05-10T11:10:23;5.32;;;1.90;;
78116;SDS011;69042;59.120;37.904;2023-05-10T11:12:58;4.85;;;2.20;;
78116;SDS011;69042;59.120;37.904;2023-05-10T11:15:47;6.75;;;1.95;;
78116;SDS011;69042;59.120;37.904;2023-05-10T11:18:19;4.82;;;2.03;;
78116;SDS011;69042;59.120;37.904;2023-05-10T11:20:52;6.85;;;2.10;;
78116;SDS011;69042;59.120;37.904;2023-05-10T11:23:23;7.25;;;2.60;;
78116;SDS011;69042;59.120;37.904;2023-05-10T11:25:49;6.00;;;2.20;;
78116;SDS011;69042;59.120;37.904;2023-05-10T11:28:18;4.85;;;2.20;;
78116;SDS011;69042;59.120;37.904;2023-05-10T11:30:45;6.93;;;2.10;;
78116;SDS011;69042;59.120;37.904;2023-05-10T11:33:15;6.03;;;2.05;;
78116;SDS011;69042;59.120;37.904;2023-05-10T11:35:43;5.68;;;2.10;;
78116;SDS011;69042;59.120;37.904;2023-05-10T11:38:09;5.68;;;2.03;;
78116;SDS011;69042;59.120;37.904;2023-05-10T11:40:36;5.03;;;1.77;;
78116;SDS011;69042;59.120;37.904;2023-05-10T11:43:03;5.38;;;2.10;;
78116;SDS011;69042;59.120;37.904;2023-05-10T11:45:34;5.53;;;2.10;;
78116;SDS011;69042;59.120;37.904;2023-05-10T11:48:01;5.40;;;2.03;;
78116;SDS011;69042;59.120;37.904;2023-05-10T11:50:28;5.65;;;2.13;;
78116;SDS011;69042;59.120;37.904;2023-05-10T11:52:54;7.13;;;2.38;;
78116;SDS011;69042;59.120;37.904;2023-05-10T11:55:22;8.32;;;2.13;;
78116;SDS011;69042;59.120;37.904;2023-05-10T11:57:53;6.55;;;2.60;;
78116;SDS011;69042;59.120;37.904;2023-05-10T12:00:20;4.43;;;2.05;;
78116;SDS011;69042;59.120;37.904;2023-05-10T12:02:47;5.93;;;2.53;;
78116;SDS011;69042;59.120;37.904;2023-05-10T12:05:13;6.55;;;2.65;;
78116;SDS011;69042;59.120;37.904;2023-05-10T12:07:40;5.95;;;2.60;;
78116;SDS011;69042;59.120;37.904;2023-05-10T12:10:07;4.22;;;1.70;;
78116;SDS011;69042;59.120;37.904;2023-05-10T12:12:35;6.05;;;2.58;;
78116;SDS011;69042;59.120;37.904;2023-05-10T12:15:03;5.43;;;2.13;;
78116;SDS011;69042;59.120;37.904;2023-05-10T12:17:31;5.50;;;2.05;;
78116;SDS011;69042;59.120;37.904;2023-05-10T12:22:49;4.95;;;2.40;;
78116;SDS011;69042;59.120;37.904;2023-05-10T12:25:17;7.55;;;2.15;;
78116;SDS011;69042;59.120;37.904;2023-05-10T12:32:50;5.50;;;2.15;;
78116;SDS011;69042;59.120;37.904;2023-05-10T12:35:17;6.70;;;2.28;;
78116;SDS011;69042;59.120;37.904;2023-05-10T12:37:47;9.57;;;2.50;;
78116;SDS011;69042;59.120;37.904;2023-05-10T12:40:13;5.60;;;1.88;;
78116;SDS011;69042;59.120;37.904;2023-05-10T12:42:40;6.90;;;2.50;;
78116;SDS011;69042;59.120;37.904;2023-05-10T12:45:06;6.13;;;2.00;;
78116;SDS011;69042;59.120;37.904;2023-05-10T12:47:36;6.82;;;2.22;;
78116;SDS011;69042;59.120;37.904;2023-05-10T12:50:03;5.70;;;2.20;;
78116;SDS011;69042;59.120;37.904;2023-05-10T12:52:30;5.05;;;2.20;;
78116;SDS011;69042;59.120;37.904;2023-05-10T12:55:00;6.82;;;2.40;;
78116;SDS011;69042;59.120;37.904;2023-05-10T12:57:26;5.82;;;2.05;;
78116;SDS011;69042;59.120;37.904;2023-05-10T12:59:53;9.27;;;2.50;;
78116;SDS011;69042;59.120;37.904;2023-05-10T13:02:20;5.72;;;1.95;;
